createdAt,value
2019-05-22T00:01:00.650Z,8.13
2019-05-22T00:03:40.327Z,7.30
2019-05-22T00:06:09.589Z,7.00
2019-05-22T00:08:43.482Z,7.80
2019-05-22T00:11:13.787Z,7.13
2019-05-22T00:13:45.050Z,6.60
2019-05-22T00:16:15.248Z,6.73
2019-05-22T00:18:44.992Z,6.47
2019-05-22T00:21:15.810Z,6.20
2019-05-22T00:23:47.153Z,7.10
2019-05-22T00:26:16.857Z,7.27
2019-05-22T00:28:47.386Z,6.90
2019-05-22T00:31:18.396Z,6.77
2019-05-22T00:33:47.557Z,6.40
2019-05-22T00:36:17.826Z,5.87
2019-05-22T00:38:48.154Z,6.83
2019-05-22T00:41:19.441Z,6.40
2019-05-22T00:43:51.741Z,6.30
2019-05-22T00:46:21.317Z,5.83
2019-05-22T00:48:52.203Z,6.57
2019-05-22T00:51:29.712Z,6.50
2019-05-22T00:54:00.592Z,5.90
2019-05-22T00:56:31.463Z,5.60
2019-05-22T00:59:05.326Z,5.50
2019-05-22T01:01:38.920Z,5.53
2019-05-22T01:04:09.863Z,5.43
2019-05-22T01:06:39.645Z,5.77
2019-05-22T01:09:10.737Z,6.53
2019-05-22T01:11:41.556Z,6.03
2019-05-22T01:14:12.371Z,6.07
2019-05-22T01:16:42.889Z,5.77
2019-05-22T01:19:13.235Z,6.07
2019-05-22T01:21:42.488Z,5.77
2019-05-22T01:24:13.211Z,5.97
2019-05-22T01:26:43.758Z,6.30
2019-05-22T01:29:13.842Z,6.60
2019-05-22T01:31:44.666Z,6.53
2019-05-22T01:34:15.539Z,6.50
2019-05-22T01:36:49.276Z,6.77
2019-05-22T01:39:25.811Z,6.10
2019-05-22T01:41:57.369Z,6.80
2019-05-22T01:44:28.397Z,5.97
2019-05-22T01:47:00.627Z,6.77
2019-05-22T01:49:31.351Z,6.67
2019-05-22T01:52:01.163Z,6.77
2019-05-22T01:54:30.407Z,6.50
2019-05-22T01:57:04.761Z,7.13
2019-05-22T01:59:35.661Z,5.47
2019-05-22T02:02:06.966Z,5.73
2019-05-22T02:04:39.249Z,5.50
2019-05-22T02:07:09.483Z,5.20
2019-05-22T02:09:40.860Z,5.33
2019-05-22T02:12:17.827Z,4.63
2019-05-22T02:14:50.438Z,4.80
2019-05-22T02:17:23.942Z,4.03
2019-05-22T02:19:53.267Z,4.27
2019-05-22T02:22:23.577Z,4.77
2019-05-22T02:24:53.188Z,4.77
2019-05-22T02:27:24.119Z,4.10
2019-05-22T02:29:55.444Z,4.03
2019-05-22T02:32:25.666Z,4.77
2019-05-22T02:34:56.774Z,4.30
2019-05-22T02:37:27.209Z,4.47
2019-05-22T02:39:56.641Z,4.10
2019-05-22T02:42:29.874Z,4.03
2019-05-22T02:45:00.618Z,4.20
2019-05-22T02:47:30.443Z,4.40
2019-05-22T02:50:00.167Z,4.23
2019-05-22T02:52:29.980Z,4.30
2019-05-22T02:54:59.610Z,4.47
2019-05-22T02:57:30.630Z,4.20
2019-05-22T03:00:00.809Z,4.53
2019-05-22T03:02:32.385Z,5.00
2019-05-22T03:05:09.533Z,4.63
2019-05-22T03:07:41.353Z,4.77
2019-05-22T03:10:13.466Z,4.63
2019-05-22T03:12:45.531Z,4.27
2019-05-22T03:15:17.982Z,4.83
2019-05-22T03:17:47.830Z,4.50
2019-05-22T03:20:23.206Z,5.13
2019-05-22T03:22:58.757Z,4.70
2019-05-22T03:25:30.137Z,4.90
2019-05-22T03:27:59.851Z,4.73
2019-05-22T03:30:34.692Z,5.17
2019-05-22T03:33:07.728Z,4.50
2019-05-22T03:35:42.482Z,4.73
2019-05-22T03:38:12.271Z,4.80
2019-05-22T03:40:41.758Z,4.67
2019-05-22T03:43:15.101Z,4.50
2019-05-22T03:45:44.714Z,4.03
2019-05-22T03:48:15.218Z,4.23
2019-05-22T03:50:44.406Z,4.70
2019-05-22T03:53:19.383Z,4.60
2019-05-22T03:55:49.017Z,4.90
2019-05-22T03:58:18.866Z,4.17
2019-05-22T04:00:52.145Z,4.93
2019-05-22T04:03:21.315Z,4.03
2019-05-22T04:05:52.651Z,4.20
2019-05-22T04:08:24.117Z,4.43
2019-05-22T04:10:56.761Z,4.40
2019-05-22T04:13:25.870Z,4.70
2019-05-22T04:15:56.050Z,5.23
2019-05-22T04:18:27.359Z,4.80
2019-05-22T04:20:58.892Z,4.67
2019-05-22T04:23:28.154Z,4.53
2019-05-22T04:25:58.984Z,6.00
2019-05-22T04:28:30.168Z,5.47
2019-05-22T04:31:00.645Z,4.87
2019-05-22T04:33:30.882Z,5.13
2019-05-22T04:36:01.651Z,4.63
2019-05-22T04:38:31.346Z,4.90
2019-05-22T04:41:03.554Z,5.27
2019-05-22T04:43:34.043Z,5.57
2019-05-22T04:46:06.372Z,4.97
2019-05-22T04:48:37.870Z,5.03
2019-05-22T04:51:28.992Z,5.30
2019-05-22T04:53:58.652Z,5.03
2019-05-22T04:56:28.774Z,4.57
2019-05-22T04:58:59.340Z,5.37
2019-05-22T05:01:28.747Z,5.37
2019-05-22T05:03:58.767Z,4.50
2019-05-22T05:06:29.607Z,5.50
2019-05-22T05:08:59.127Z,4.83
2019-05-22T05:11:28.293Z,5.57
2019-05-22T05:13:57.615Z,5.03
2019-05-22T05:16:26.786Z,4.90
2019-05-22T05:18:56.059Z,5.07
2019-05-22T05:21:25.493Z,5.73
2019-05-22T05:23:55.049Z,5.40
2019-05-22T05:26:26.065Z,5.20
2019-05-22T05:28:55.706Z,5.23
2019-05-22T05:31:25.645Z,5.10
2019-05-22T05:34:00.714Z,5.43
2019-05-22T05:36:30.355Z,5.23
2019-05-22T05:39:00.178Z,4.37
2019-05-22T05:41:29.926Z,4.10
2019-05-22T05:43:59.757Z,5.07
2019-05-22T05:46:28.950Z,4.80
2019-05-22T05:48:58.231Z,4.87
2019-05-22T05:51:30.362Z,4.43
2019-05-22T05:54:06.373Z,4.40
2019-05-22T05:56:37.614Z,5.03
2019-05-22T05:59:07.543Z,5.43
2019-05-22T06:01:39.630Z,5.60
2019-05-22T06:04:09.810Z,6.27
2019-05-22T06:06:42.097Z,5.93
2019-05-22T06:09:14.628Z,4.63
2019-05-22T06:11:48.963Z,5.47
2019-05-22T06:14:28.277Z,5.73
2019-05-22T06:17:13.997Z,5.60
2019-05-22T06:19:52.351Z,5.83
2019-05-22T06:22:21.620Z,5.67
2019-05-22T06:24:57.309Z,5.90
2019-05-22T06:27:35.905Z,6.40
2019-05-22T06:30:10.149Z,5.57
2019-05-22T06:33:01.965Z,5.83
2019-05-22T06:35:35.209Z,5.93
2019-05-22T06:38:22.002Z,5.60
2019-05-22T06:40:51.450Z,5.87
2019-05-22T06:43:27.674Z,5.77
2019-05-22T06:45:57.316Z,5.63
2019-05-22T06:48:26.968Z,6.03
2019-05-22T06:50:57.328Z,5.67
2019-05-22T06:53:26.581Z,4.87
2019-05-22T06:55:55.914Z,4.50
2019-05-22T06:58:25.726Z,6.00
2019-05-22T07:00:56.220Z,5.43
2019-05-22T07:03:25.428Z,5.50
2019-05-22T07:05:54.617Z,5.27
2019-05-22T07:08:24.056Z,5.97
2019-05-22T07:11:11.591Z,5.77
2019-05-22T07:13:41.213Z,5.43
2019-05-22T07:16:11.244Z,5.20
2019-05-22T07:18:41.579Z,4.87
2019-05-22T07:21:10.938Z,4.90
2019-05-22T07:23:40.096Z,6.00
2019-05-22T07:26:10.413Z,5.53
2019-05-22T07:28:39.688Z,5.53
2019-05-22T07:31:09.171Z,5.83
2019-05-22T07:33:38.587Z,5.67
2019-05-22T07:36:12.119Z,5.77
2019-05-22T07:38:40.182Z,6.20
2019-05-22T07:41:09.445Z,5.63
2019-05-22T07:43:41.738Z,5.83
2019-05-22T07:46:09.776Z,6.03
2019-05-22T07:48:39.086Z,6.30
2019-05-22T07:51:10.100Z,6.30
2019-05-22T07:53:40.449Z,6.33
2019-05-22T07:56:10.128Z,6.30
2019-05-22T07:58:39.969Z,6.13
2019-05-22T08:01:09.559Z,6.40
2019-05-22T08:03:40.802Z,6.57
2019-05-22T08:06:10.149Z,6.07
2019-05-22T08:08:41.804Z,6.90
2019-05-22T08:11:12.229Z,5.70
2019-05-22T08:13:43.517Z,5.67
2019-05-22T08:16:13.602Z,5.77
2019-05-22T08:18:42.905Z,5.80
2019-05-22T08:21:12.187Z,6.43
2019-05-22T08:23:42.093Z,6.17
2019-05-22T08:26:12.917Z,6.40
2019-05-22T08:28:42.222Z,6.20
2019-05-22T08:31:13.041Z,6.90
2019-05-22T08:33:42.554Z,6.90
2019-05-22T08:36:11.919Z,6.63
2019-05-22T08:38:44.588Z,7.50
2019-05-22T08:41:15.948Z,6.20
2019-05-22T08:44:15.517Z,6.37
2019-05-22T08:46:17.846Z,7.17
2019-05-22T08:48:49.235Z,6.43
2019-05-22T08:51:21.457Z,6.23
2019-05-22T08:54:09.927Z,7.10
2019-05-22T08:56:41.389Z,7.67
2019-05-22T08:59:19.599Z,7.83
2019-05-22T09:01:42.403Z,8.00
2019-05-22T09:04:11.674Z,7.73
2019-05-22T09:06:41.432Z,9.47
2019-05-22T09:09:10.665Z,9.37
2019-05-22T09:11:39.840Z,10.47
2019-05-22T09:14:09.091Z,10.83
2019-05-22T09:16:38.283Z,9.57
2019-05-22T09:19:07.574Z,10.30
2019-05-22T09:21:40.569Z,10.40
2019-05-22T09:24:13.692Z,11.03
2019-05-22T09:26:42.972Z,10.30
2019-05-22T09:29:12.159Z,10.47
2019-05-22T09:31:41.754Z,10.43
2019-05-22T09:34:11.107Z,10.33
2019-05-22T09:36:40.565Z,10.80
2019-05-22T09:39:11.980Z,10.90
2019-05-22T09:41:41.307Z,9.97
2019-05-22T09:44:10.551Z,9.60
2019-05-22T09:46:39.810Z,10.40
2019-05-22T09:49:10.993Z,9.60
2019-05-22T09:51:40.203Z,9.77
2019-05-22T09:54:09.740Z,8.70
2019-05-22T09:56:38.995Z,8.90
2019-05-22T09:59:08.318Z,8.57
2019-05-22T10:01:37.509Z,8.63
2019-05-22T10:04:08.015Z,8.67
2019-05-22T10:06:37.261Z,8.73
2019-05-22T10:09:08.365Z,8.47
2019-05-22T10:11:37.916Z,7.77
2019-05-22T10:14:07.269Z,7.83
2019-05-22T10:16:37.501Z,8.07
2019-05-22T10:19:07.013Z,8.67
2019-05-22T10:21:37.032Z,7.73
2019-05-22T10:24:07.255Z,8.87
2019-05-22T10:26:36.708Z,8.60
2019-05-22T10:29:06.355Z,7.13
2019-05-22T10:31:35.607Z,7.30
2019-05-22T10:34:04.879Z,7.23
2019-05-22T10:36:34.533Z,7.93
2019-05-22T10:39:05.391Z,8.10
2019-05-22T10:41:34.663Z,7.67
2019-05-22T10:44:05.053Z,8.27
2019-05-22T10:46:34.302Z,8.30
2019-05-22T10:49:03.828Z,7.80
2019-05-22T10:51:32.998Z,8.93
2019-05-22T10:54:02.891Z,8.40
2019-05-22T10:56:32.706Z,8.63
2019-05-22T10:59:02.031Z,8.90
2019-05-22T11:01:32.024Z,8.23
2019-05-22T11:04:01.829Z,8.93
2019-05-22T11:06:31.474Z,8.70
2019-05-22T11:09:00.686Z,9.30
2019-05-22T11:11:30.313Z,10.47
2019-05-22T11:14:02.216Z,10.60
2019-05-22T11:16:32.306Z,11.00
2019-05-22T11:19:02.715Z,9.47
2019-05-22T11:21:32.973Z,9.37
2019-05-22T11:24:02.230Z,10.27
2019-05-22T11:26:32.001Z,10.47
2019-05-22T11:29:01.454Z,9.90
2019-05-22T11:31:31.149Z,9.80
2019-05-22T11:34:00.399Z,10.90
2019-05-22T11:36:29.856Z,9.47
2019-05-22T11:38:59.252Z,10.17
2019-05-22T11:41:28.505Z,9.17
2019-05-22T11:43:57.767Z,10.03
2019-05-22T11:46:27.312Z,10.90
2019-05-22T11:48:56.493Z,11.53
2019-05-22T11:51:25.858Z,10.93
2019-05-22T11:54:08.847Z,11.87
2019-05-22T11:56:26.064Z,8.23
2019-05-22T11:58:55.337Z,7.57
2019-05-22T12:01:25.362Z,7.23
2019-05-22T12:03:55.267Z,6.13
2019-05-22T12:06:25.215Z,7.83
2019-05-22T12:08:55.332Z,7.07
2019-05-22T12:11:24.687Z,9.33
2019-05-22T12:13:54.643Z,11.23
2019-05-22T12:16:24.643Z,10.87
2019-05-22T12:18:54.255Z,10.87
2019-05-22T12:21:23.524Z,12.27
2019-05-22T12:23:52.775Z,15.83
2019-05-22T12:26:23.213Z,15.90
2019-05-22T12:28:52.397Z,14.60
2019-05-22T12:31:21.652Z,13.67
2019-05-22T12:33:51.418Z,13.73
2019-05-22T12:36:21.789Z,13.53
2019-05-22T12:38:51.818Z,11.37
2019-05-22T12:41:21.263Z,8.30
2019-05-22T12:43:51.776Z,8.20
2019-05-22T12:46:22.005Z,7.47
2019-05-22T12:48:51.723Z,8.63
2019-05-22T12:51:21.555Z,11.03
2019-05-22T12:53:52.704Z,9.83
2019-05-22T12:56:22.334Z,8.63
2019-05-22T12:58:52.117Z,10.40
2019-05-22T13:01:22.063Z,10.37
2019-05-22T13:03:52.306Z,8.53
2019-05-22T13:06:21.564Z,8.90
2019-05-22T13:08:51.362Z,9.67
2019-05-22T13:11:21.102Z,12.07
2019-05-22T13:13:50.760Z,11.17
2019-05-22T13:16:20.307Z,11.43
2019-05-22T13:18:50.859Z,11.20
2019-05-22T13:21:23.110Z,12.07
2019-05-22T13:23:53.435Z,11.50
2019-05-22T13:26:24.361Z,10.20
2019-05-22T13:28:55.183Z,9.70
2019-05-22T13:31:24.684Z,9.30
2019-05-22T13:33:54.881Z,8.63
2019-05-22T13:36:24.126Z,7.43
2019-05-22T13:38:53.865Z,9.90
2019-05-22T13:41:23.113Z,9.23
2019-05-22T13:43:52.716Z,9.60
2019-05-22T13:46:21.952Z,8.83
2019-05-22T13:48:51.477Z,7.63
2019-05-22T13:51:21.321Z,9.30
2019-05-22T13:53:52.006Z,7.60
2019-05-22T13:56:25.228Z,6.77
2019-05-22T13:58:54.195Z,6.63
2019-05-22T14:01:23.993Z,6.70
2019-05-22T14:03:53.984Z,5.63
2019-05-22T14:06:24.017Z,7.87
2019-05-22T14:08:53.440Z,7.93
2019-05-22T14:11:23.407Z,7.73
2019-05-22T14:13:54.194Z,6.70
2019-05-22T14:16:23.735Z,4.73
2019-05-22T14:18:53.005Z,4.83
2019-05-22T14:21:22.286Z,4.63
2019-05-22T14:23:51.705Z,3.63
2019-05-22T14:26:20.945Z,3.87
2019-05-22T14:28:51.058Z,2.73
2019-05-22T14:31:26.309Z,2.90
2019-05-22T14:33:55.483Z,2.63
2019-05-22T14:36:24.739Z,3.17
2019-05-22T14:38:54.721Z,3.20
2019-05-22T14:41:24.212Z,2.90
2019-05-22T14:43:53.544Z,2.70
2019-05-22T14:46:22.857Z,2.83
2019-05-22T14:48:52.388Z,3.03
2019-05-22T14:51:23.280Z,2.57
2019-05-22T14:53:54.934Z,2.30
2019-05-22T14:56:25.457Z,1.90
2019-05-22T14:58:55.840Z,1.73
2019-05-22T15:01:25.309Z,1.67
2019-05-22T15:03:55.314Z,2.17
2019-05-22T15:06:24.651Z,2.20
2019-05-22T15:08:54.190Z,2.03
2019-05-22T15:11:23.940Z,2.50
2019-05-22T15:13:53.273Z,2.53
2019-05-22T15:16:22.823Z,1.63
2019-05-22T15:18:52.293Z,2.10
2019-05-22T15:21:21.906Z,1.70
2019-05-22T15:23:52.051Z,1.53
2019-05-22T15:26:21.720Z,1.70
2019-05-22T15:28:51.949Z,1.57
2019-05-22T15:31:21.412Z,1.53
2019-05-22T15:33:51.156Z,1.97
2019-05-22T15:36:22.841Z,2.00
2019-05-22T15:38:53.117Z,1.77
2019-05-22T15:41:23.552Z,2.07
2019-05-22T15:43:54.008Z,2.40
2019-05-22T15:46:24.755Z,2.47
2019-05-22T15:48:54.873Z,2.17
2019-05-22T15:51:27.134Z,2.33
2019-05-22T15:54:00.426Z,2.60
2019-05-22T15:56:31.760Z,2.03
2019-05-22T15:59:05.176Z,2.27
2019-05-22T16:01:36.847Z,1.80
2019-05-22T16:04:10.004Z,1.90
2019-05-22T16:06:39.881Z,2.47
2019-05-22T16:09:13.219Z,1.90
2019-05-22T16:11:44.216Z,1.93
2019-05-22T16:14:14.841Z,1.80
2019-05-22T16:16:45.920Z,2.53
2019-05-22T16:19:15.282Z,2.00
2019-05-22T16:21:47.307Z,2.63
2019-05-22T16:24:17.150Z,2.67
2019-05-22T16:26:46.821Z,3.00
2019-05-22T16:29:16.948Z,3.37
2019-05-22T16:31:47.280Z,2.77
2019-05-22T16:34:17.723Z,2.87
2019-05-22T16:36:47.492Z,2.67
2019-05-22T16:39:17.729Z,3.27
2019-05-22T16:41:47.335Z,2.30
2019-05-22T16:44:17.259Z,1.87
2019-05-22T16:46:46.941Z,2.30
2019-05-22T16:49:17.784Z,2.27
2019-05-22T16:51:48.626Z,2.37
2019-05-22T16:54:20.912Z,3.03
2019-05-22T16:56:49.690Z,2.27
2019-05-22T16:59:20.505Z,2.93
2019-05-22T17:02:00.088Z,2.97
2019-05-22T17:04:21.229Z,3.60
2019-05-22T17:06:51.330Z,3.10
2019-05-22T17:09:21.780Z,2.90
2019-05-22T17:11:52.522Z,2.83
2019-05-22T17:14:23.669Z,2.60
2019-05-22T17:16:53.099Z,2.87
2019-05-22T17:19:27.406Z,2.80
2019-05-22T17:21:54.542Z,2.30
2019-05-22T17:24:24.960Z,3.13
2019-05-22T17:26:56.167Z,2.40
2019-05-22T17:29:27.352Z,2.00
2019-05-22T17:31:56.868Z,2.77
2019-05-22T17:34:35.052Z,3.33
2019-05-22T17:37:08.315Z,3.27
2019-05-22T17:39:40.923Z,3.60
2019-05-22T17:42:13.574Z,3.73
2019-05-22T17:44:46.177Z,3.50
2019-05-22T17:47:17.536Z,3.27
2019-05-22T17:49:46.968Z,3.13
2019-05-22T17:52:17.891Z,2.63
2019-05-22T17:54:51.089Z,2.67
2019-05-22T17:57:22.274Z,2.70
2019-05-22T17:59:52.678Z,2.50
2019-05-22T18:02:23.675Z,2.87
2019-05-22T18:04:52.914Z,3.00
2019-05-22T18:07:22.768Z,4.57
2019-05-22T18:09:51.938Z,4.93
2019-05-22T18:12:22.013Z,5.00
2019-05-22T18:14:51.196Z,5.73
2019-05-22T18:17:20.457Z,4.47
2019-05-22T18:19:49.779Z,4.20
2019-05-22T18:22:19.869Z,4.80
2019-05-22T18:24:49.682Z,3.50
2019-05-22T18:27:19.009Z,3.70
2019-05-22T18:29:48.206Z,3.40
2019-05-22T18:32:17.659Z,3.23
2019-05-22T18:34:46.909Z,3.13
2019-05-22T18:37:16.096Z,3.47
2019-05-22T18:39:45.275Z,3.17
2019-05-22T18:42:14.630Z,2.87
2019-05-22T18:44:43.814Z,3.10
2019-05-22T18:47:13.271Z,3.07
2019-05-22T18:49:42.469Z,3.10
2019-05-22T18:52:11.654Z,3.13
2019-05-22T18:54:40.841Z,2.93
2019-05-22T18:57:10.491Z,3.27
2019-05-22T18:59:39.938Z,2.80
2019-05-22T19:02:09.608Z,3.20
2019-05-22T19:04:44.693Z,2.80
2019-05-22T19:07:14.159Z,2.87
2019-05-22T19:09:43.406Z,2.87
2019-05-22T19:12:12.658Z,2.93
2019-05-22T19:14:41.840Z,2.53
2019-05-22T19:17:11.378Z,2.20
2019-05-22T19:19:40.665Z,2.43
2019-05-22T19:22:09.842Z,2.87
2019-05-22T19:24:39.012Z,2.73
2019-05-22T19:27:08.192Z,2.30
2019-05-22T19:29:37.752Z,2.90
2019-05-22T19:32:07.016Z,2.93
2019-05-22T19:34:36.356Z,3.00
2019-05-22T19:37:05.612Z,3.13
2019-05-22T19:39:36.794Z,3.23
2019-05-22T19:42:07.741Z,3.50
2019-05-22T19:44:37.027Z,3.80
2019-05-22T19:47:07.728Z,3.37
2019-05-22T19:49:37.076Z,3.40
2019-05-22T19:52:07.493Z,3.30
2019-05-22T19:54:36.805Z,3.70
2019-05-22T19:57:06.348Z,3.57
2019-05-22T19:59:35.530Z,3.40
2019-05-22T20:02:05.532Z,3.20
2019-05-22T20:04:35.424Z,3.60
2019-05-22T20:07:07.054Z,3.20
2019-05-22T20:09:36.704Z,3.90
2019-05-22T20:12:07.376Z,4.30
2019-05-22T20:14:37.272Z,3.67
2019-05-22T20:17:06.448Z,4.00
2019-05-22T20:19:36.894Z,4.07
2019-05-22T20:22:06.552Z,4.07
2019-05-22T20:24:36.071Z,3.77
2019-05-22T20:27:09.374Z,3.63
2019-05-22T20:29:36.887Z,3.50
2019-05-22T20:32:07.818Z,3.10
2019-05-22T20:34:37.238Z,3.33
2019-05-22T20:37:06.691Z,3.07
2019-05-22T20:39:38.517Z,2.97
2019-05-22T20:42:09.122Z,3.37
2019-05-22T20:44:39.112Z,3.20
2019-05-22T20:47:10.702Z,4.00
2019-05-22T20:49:42.219Z,2.90
2019-05-22T20:52:12.891Z,3.37
2019-05-22T20:54:43.307Z,2.93
2019-05-22T20:57:12.849Z,2.97
2019-05-22T20:59:44.172Z,3.20
2019-05-22T21:02:14.960Z,3.27
2019-05-22T21:04:46.649Z,2.87
2019-05-22T21:07:18.871Z,3.00
2019-05-22T21:09:48.123Z,2.93
2019-05-22T21:12:19.025Z,3.33
2019-05-22T21:14:48.212Z,3.60
2019-05-22T21:17:19.088Z,3.13
2019-05-22T21:19:48.845Z,3.33
2019-05-22T21:22:19.657Z,3.37
2019-05-22T21:24:49.773Z,3.43
2019-05-22T21:27:19.001Z,3.77
2019-05-22T21:29:48.176Z,3.60
2019-05-22T21:32:19.045Z,3.20
2019-05-22T21:34:48.313Z,3.30
2019-05-22T21:37:18.706Z,3.37
2019-05-22T21:39:48.421Z,3.57
2019-05-22T21:42:18.071Z,3.50
2019-05-22T21:44:47.278Z,3.33
2019-05-22T21:47:16.425Z,3.40
2019-05-22T21:49:45.682Z,3.60
2019-05-22T21:52:15.740Z,3.80
2019-05-22T21:54:46.410Z,3.77
2019-05-22T21:57:17.139Z,3.60
2019-05-22T21:59:46.311Z,3.60
2019-05-22T22:02:20.177Z,4.37
2019-05-22T22:04:50.286Z,3.63
2019-05-22T22:07:21.146Z,3.90
2019-05-22T22:09:50.985Z,3.77
2019-05-22T22:12:23.242Z,3.40
2019-05-22T22:14:52.593Z,4.10
2019-05-22T22:17:23.813Z,4.23
2019-05-22T22:19:53.956Z,4.23
2019-05-22T22:22:27.010Z,3.80
2019-05-22T22:24:56.399Z,4.60
2019-05-22T22:27:25.906Z,3.90
2019-05-22T22:29:55.730Z,4.83
2019-05-22T22:32:26.543Z,4.47
2019-05-22T22:34:55.717Z,4.23
2019-05-22T22:37:26.422Z,4.03
2019-05-22T22:39:56.855Z,4.47
2019-05-22T22:42:41.594Z,4.07
2019-05-22T22:45:24.451Z,4.57
2019-05-22T22:47:54.890Z,4.03
2019-05-22T22:50:25.940Z,4.13
2019-05-22T22:52:58.386Z,4.43
2019-05-22T22:55:29.826Z,3.90
2019-05-22T22:58:16.031Z,4.30
2019-05-22T23:00:34.110Z,4.47
2019-05-22T23:03:04.249Z,4.20
2019-05-22T23:05:35.543Z,4.37
2019-05-22T23:08:06.023Z,3.80
2019-05-22T23:10:35.360Z,3.73
2019-05-22T23:13:06.995Z,4.13
2019-05-22T23:15:37.840Z,3.83
2019-05-22T23:18:41.263Z,4.20
2019-05-22T23:21:09.363Z,4.00
2019-05-22T23:23:37.750Z,4.70
2019-05-22T23:26:08.634Z,3.80
2019-05-22T23:28:40.735Z,3.73
2019-05-22T23:31:11.646Z,4.40
2019-05-22T23:33:40.991Z,5.00
2019-05-22T23:36:12.053Z,4.23
2019-05-22T23:38:43.003Z,4.40
2019-05-22T23:41:13.803Z,4.83
2019-05-22T23:43:44.790Z,4.10
2019-05-22T23:46:14.713Z,4.13
2019-05-22T23:48:44.833Z,4.03
2019-05-22T23:51:14.145Z,4.30
2019-05-22T23:53:45.223Z,4.70
2019-05-22T23:56:16.269Z,4.80
2019-05-22T23:58:52.643Z,4.10
